Bodega Marine Reserve, California Weather observations

Data are for 10 minute period ending at time listed.
 Day   Time   Solar   Ave.   Ave.  Ave.  Vector  Max.   Baro.   Total    
  of    of     Rad.   Air    Rel.  Wind   Wind   Wind  Press.  Precip.   
Year   Day            Temp.  Hum.  Speed  Dir.   Gust                    
2017   (PST)  Kw/m2    F      %     mph   deg.    mph    mb.     in.     
-------------------------------------------------------------------------
 322   17:10   100.00  99999.0   99999  99999.0   99999   99999.0   99999.0   99999.00 
 322   17:20   100.00  99999.0   99999  99999.0   99999   99999.0   99999.0   99999.00 
 322   17:30   100.00  99999.0   99999  99999.0   99999   99999.0   99999.0   99999.00 
 322   17:40   100.00  99999.0   99999  99999.0   99999   99999.0   99999.0   99999.00 
 322   17:50   100.00  99999.0   99999  99999.0   99999   99999.0   99999.0   99999.00 
 322   18:00   0.00   49.0    92    4.2   306     5.0   1018.0   99999.00 
 322   18:10   0.00   48.5    91    2.6   321     4.3   1018.0    0.00 
 322   18:20   0.00   49.0    92    0.1    15     0.8   1018.3    0.00 
 322   18:30   0.00   49.4    92    0.0     0     0.0   1018.3    0.00 
 322   18:40   0.00   49.3    91    0.4   300     1.9   1018.3    0.00 
 322   18:50   0.00   47.2    93    2.0   305     2.3   1018.3    0.00 
 322   19:00   0.00   48.5    93    1.7   302     2.3   1018.6    0.00 
 322   19:10   0.00   47.8    94    1.7   321     2.6   1018.6    0.00 
 322   19:20   0.00   48.7    93    1.6   316     2.4   1018.6    0.00 
 322   19:30   0.00   48.0    93    2.3   311     3.5   1018.6    0.00 
 322   19:40   0.00   47.2    94    2.4   312     3.4   1018.3    0.00 
 322   19:50   0.00   47.3    96    1.3   299     2.0   1018.3    0.00 
 322   20:00   0.00   47.6    96    2.3   291     3.2   1018.3    0.00 
 322   20:10   0.00   47.5    96    0.9   295     2.9   1018.3    0.00 
 322   20:20   0.00   48.7    96    0.6    86     1.5   1018.3    0.00 
 322   20:30   0.00   47.8    94    0.9   108     1.8   1018.6    0.00 
 322   20:40   0.00   46.6    95    1.3   110     2.0   1018.3    0.00 
 322   20:50   0.00   46.3    96    1.8   121     2.8   1018.3    0.00 
 322   21:00   0.00   46.3    97    2.3   138     2.8   1018.3    0.00 
 322   21:10   0.00   46.6    97    2.4   146     3.5   1018.3    0.00 
 322   21:20   0.00   46.7    97    3.6   137     4.9   1018.3    0.00 
 322   21:30   0.00   46.9    95    3.5   140     5.5   1018.3    0.00 
 322   21:40   0.00   47.2    94    3.7   133     5.7   1018.0    0.00 
 322   21:50   0.00   48.8    85    5.1   108     7.2   1018.0    0.00 
 322   22:00   0.00   48.6    84    4.1   110     5.7   1018.3    0.00 
 322   22:10   0.00   49.2    82    4.6   133     6.5   1018.3    0.00 
 322   22:20   0.00   48.8    82    5.4   130     7.5   1018.6    0.00 
 322   22:30   0.00   49.0    81    4.6   122     7.5   1018.6    0.00 
 322   22:40   0.00   49.4    79    3.9   108     7.5   1018.6    0.00 
 322   22:50   0.00   48.0    84    1.8   120     3.9   1019.0    0.00 
 322   23:00   0.00   47.7    87    2.8   131     4.2   1019.0    0.00 
 322   23:10   0.00   47.5    87    3.3   118     5.0   1019.0    0.00 
 322   23:20   0.00   46.4    85    4.3    99     5.7   1019.0    0.00 
 322   23:30   0.00   46.7    87    3.7   104     5.3   1018.6    0.00 
 322   23:40   0.00   47.9    82    3.6   124     6.1   1019.0    0.00 
 322   23:50   0.00   47.3    82    3.3   119     5.3   1019.0    0.00 
 323    0:00   0.00   46.8    80    3.7   101     5.7   1019.0    0.00 
 323    0:10   100.00  99999.0   99999  99999.0   99999   99999.0   99999.0   99999.00 
 323    0:20   100.00  99999.0   99999  99999.0   99999   99999.0   99999.0   99999.00 
 323    0:30   100.00  99999.0   99999  99999.0   99999   99999.0   99999.0   99999.00 
 323    0:40   100.00  99999.0   99999  99999.0   99999   99999.0   99999.0   99999.00 
 323    0:50   100.00  99999.0   99999  99999.0   99999   99999.0   99999.0   99999.00 
 323    1:00   100.00  99999.0   99999  99999.0   99999   99999.0   99999.0   99999.00 
 323    1:10   0.00   47.0    80    4.2   128     7.2   1018.6    0.00 
 323    1:20   0.00   47.0    79    3.9   144     6.0   1018.6    0.00 
 323    1:30   0.00   46.4    79    3.9   145     5.6   1018.6    0.00 
 323    1:40   0.00   46.2    80    3.4   142     5.0   1018.6    0.00 
 323    1:50   0.00   46.1    83    2.5   147     3.4   1018.6    0.00 
 323    2:00   0.00   46.3    82    1.8   145     2.7   1018.6    0.00 
 323    2:10   0.00   45.7    83    3.3   145     4.8   1018.3    0.00 
 323    2:20   0.00   43.2    88    2.8   148     5.0   1018.3    0.00 
 323    2:30   0.00   43.1    89    2.6   154     4.1   1018.3    0.00 
 323    2:40   0.00   43.1    88    4.4   159     5.4   1018.6    0.00 
 323    2:50   0.00   44.7    86    4.9   150     6.1   1018.6    0.00 
 323    3:00   0.00   44.5    86    2.8   119     4.0   1018.6    0.00 
 323    3:10   100.00  99999.0   99999  99999.0   99999   99999.0   99999.0   99999.00 
 323    3:20   100.00  99999.0   99999  99999.0   99999   99999.0   99999.0   99999.00 
 323    3:30   100.00  99999.0   99999  99999.0   99999   99999.0   99999.0   99999.00 
 323    3:40   100.00  99999.0   99999  99999.0   99999   99999.0   99999.0   99999.00 
 323    3:50   100.00  99999.0   99999  99999.0   99999   99999.0   99999.0   99999.00 
 323    4:00   100.00  99999.0   99999  99999.0   99999   99999.0   99999.0   99999.00 
 323    4:10   100.00  99999.0   99999  99999.0   99999   99999.0   99999.0   99999.00 
 323    4:20   100.00  99999.0   99999  99999.0   99999   99999.0   99999.0   99999.00 
 323    4:30   100.00  99999.0   99999  99999.0   99999   99999.0   99999.0   99999.00 
 323    4:40   100.00  99999.0   99999  99999.0   99999   99999.0   99999.0   99999.00 
 323    4:50   100.00  99999.0   99999  99999.0   99999   99999.0   99999.0   99999.00 
 323    5:00   100.00  99999.0   99999  99999.0   99999   99999.0   99999.0   99999.00 
 323    5:10   0.00   45.6    78    6.2   130     8.9   1018.0    0.00 
 323    5:20   0.00   45.5    79    6.8   137     9.0   1018.0    0.00 
 323    5:30   0.00   45.1    79    6.5   150     9.5   1017.6    0.00 
 323    5:40   0.00   44.6    81    6.0   147     7.9   1017.6    0.00 
 323    5:50   0.00   45.0    80    5.9   140     7.5   1017.6    0.00 
 323    6:00   0.00   45.1    80    5.6   148     7.5   1017.6    0.00 
 323    6:10   100.00  99999.0   99999  99999.0   99999   99999.0   99999.0   99999.00 
 323    6:20   100.00  99999.0   99999  99999.0   99999   99999.0   99999.0   99999.00 
 323    6:30   100.00  99999.0   99999  99999.0   99999   99999.0   99999.0   99999.00 
 323    6:40   100.00  99999.0   99999  99999.0   99999   99999.0   99999.0   99999.00 
 323    6:50   100.00  99999.0   99999  99999.0   99999   99999.0   99999.0   99999.00 
 323    7:00   100.00  99999.0   99999  99999.0   99999   99999.0   99999.0   99999.00 
 323    7:10   0.00   45.0    78    7.3    96    10.4   1018.0    0.00 
 323    7:20   0.01   45.7    76    6.0   113     8.7   1018.3    0.00 
 323    7:30   0.02   46.2    74    5.1   126     8.8   1018.0    0.00 
 323    7:40   0.04   46.7    72    6.9   134     9.3   1018.0    0.00 
 323    7:50   0.08   47.4    72    6.8   130     9.7   1018.0    0.00 
 323    8:00   0.11   48.0    71    6.5   144     9.1   1018.3    0.00 
 323    8:10   0.13   48.5    69    5.3   133     8.1   1018.3    0.00 
 323    8:20   0.14   49.0    68    6.6   133    10.0   1018.3    0.00 
 323    8:30   0.13   48.7    69    5.8   120    11.0   1018.3    0.00 
 323    8:40   0.15   48.9    70    4.7   141     8.7   1018.3    0.00 
 323    8:50   0.19   49.8    68    4.6   150     9.0   1018.3    0.00 
 323    9:00   0.21   50.8    65    4.4   128     8.5   1018.3    0.00 
 323    9:10   0.24   51.8    65    4.6   142     6.9   1018.6    0.00 
 323    9:20   0.29   53.2    64    5.0   114     8.5   1018.6    0.00 
 323    9:30   0.31   54.2    61    7.4    94     9.6   1018.3    0.00 
 323    9:40   0.31   54.5    61    8.6    91    11.4   1018.3    0.00 
 323    9:50   0.35   55.5    58    8.8    92    11.2   1018.3    0.00 
 323   10:00   0.35   55.4    58    8.6    93    11.0   1018.3    0.00 
 323   10:10   0.38   55.8    59    5.0   109     9.3   1018.6    0.00 
 323   10:20   0.40   55.9    58    5.4   122     8.8   1018.6    0.00 
 323   10:30   0.41   55.9    58    6.8   138     9.0   1018.6    0.00 
 323   10:40   0.40   57.0    56    4.5   113     7.7   1018.6    0.00 
 323   10:50   0.39   57.2    54    4.5   119     6.6   1018.6    0.00 
 323   11:00   0.39   57.8    55    3.4   119     5.3   1018.6    0.00 
 323   11:10   0.38   58.2    53    4.1   110     6.3   1018.6    0.00 
 323   11:20   0.45   58.7    52    5.1   136     8.2   1018.3    0.00 
 323   11:30   0.39   59.0    52    5.7   146     7.7   1018.3    0.00 
 323   11:40   0.38   58.5    54    6.1   134     8.0   1018.0    0.00 
 323   11:50   0.41   59.1    51    6.1   134     8.0   1017.6    0.00 
 323   12:00   0.42   59.2    53    6.0   138     8.0   1017.6    0.00 
 323   12:10   0.47   59.7    52    6.2   138     7.6   1017.3    0.00 
 323   12:20   0.42   59.8    54    4.8   148     7.0   1016.9    0.00 
 323   12:30   0.46   60.0    53    4.8   148     6.4   1016.9    0.00 
 323   12:40   0.46   60.6    51    4.3   147     6.4   1016.6    0.00 
 323   12:50   0.42   61.0    50    4.3   154     5.4   1016.6    0.00 
 323   13:00   0.42   61.2    48    4.4   144     6.6   1016.6    0.00 
 323   13:10   0.42   62.0    48    4.5   185     7.0   1016.6    0.00 
 323   13:20   0.39   61.9    49    4.6   207     6.7   1016.6    0.00 
 323   13:30   0.34   61.7    48    4.3   189     5.9   1016.3    0.00 
 323   13:40   0.34   61.9    49    4.4   182     6.6   1016.3    0.00 
 323   13:50   0.34   61.4    51    6.7   203     8.5   1016.3    0.00 
 323   14:00   0.32   60.9    51    7.7   213     9.4   1016.3    0.00 
 323   14:10   0.34   60.9    50    7.4   219     9.9   1015.9    0.00 
 323   14:20   0.35   61.3    50    6.4   210     8.3   1015.9    0.00 
 323   14:30   0.32   61.4    48    5.8   199     8.4   1015.9    0.00 
 323   14:40   0.22   61.0    49    5.9   204     8.6   1015.9    0.00 
 323   14:50   0.22   60.3    53    6.3   221     8.6   1015.9    0.00 
 323   15:00   0.21   59.4    60    5.7   230     8.6   1015.9    0.00 
 323   15:10   0.15   58.5    64    6.3   224     8.3   1015.9    0.00 
 323   15:20   0.14   58.1    65    6.7   229     8.7   1015.9    0.00 
 323   15:30   0.14   57.9    66    6.2   244     7.9   1015.9    0.00 
 323   15:40   0.09   57.4    69    6.6   255     8.1   1015.9    0.00 
 323   15:50   0.06   56.9    72    6.1   258     7.5   1015.9    0.00 
 323   16:00   0.05   56.7    72    5.7   273     6.7   1016.3    0.00 
 323   16:10   0.04   56.5    74    5.5   284     6.7   1016.3    0.00 
 323   16:20   0.03   56.2    74    5.0   296     6.3   1016.3    0.00 
 323   16:30   0.02   55.8    76    5.0   297     6.2   1016.3    0.00 
 323   16:40   0.01   55.7    77    4.4   295     5.4   1016.3    0.00 
 323   16:50   0.00   55.7    77    4.3   307     6.0   1015.9    0.00 
 323   17:00   0.00   55.4    77    3.4   312     4.8   1015.6    0.00 

Return to Bodega Marine Reserve graphs page.


Western Regional Climate Center,wrcc@dri.edu